createdAt,value
2023-05-08T00:04:30.109Z,0.00
2023-05-08T00:09:29.986Z,0.00
2023-05-08T00:14:29.987Z,0.00
2023-05-08T00:19:29.962Z,0.00
2023-05-08T00:24:29.853Z,0.00
2023-05-08T00:29:29.796Z,0.00
2023-05-08T00:34:29.719Z,0.00
2023-05-08T00:39:29.660Z,0.00
2023-05-08T00:44:29.629Z,0.00
2023-05-08T00:49:30.626Z,0.00
2023-05-08T00:54:29.546Z,0.00
2023-05-08T00:59:29.552Z,0.00
2023-05-08T01:04:29.532Z,0.00
2023-05-08T01:09:29.334Z,0.00
2023-05-08T01:14:29.334Z,0.00
2023-05-08T01:19:29.248Z,0.00
2023-05-08T01:24:29.258Z,0.00
2023-05-08T01:29:31.144Z,0.00
2023-05-08T01:34:29.162Z,0.00
2023-05-08T01:39:29.074Z,0.00
2023-05-08T01:44:37.891Z,0.00
2023-05-08T01:49:28.938Z,0.00
2023-05-08T01:54:28.860Z,0.00
2023-05-08T01:59:29.002Z,0.00
2023-05-08T02:04:28.895Z,0.00
2023-05-08T02:09:28.792Z,0.00
2023-05-08T02:14:28.690Z,0.00
2023-05-08T02:19:28.632Z,0.00
2023-05-08T02:24:29.616Z,0.00
2023-05-08T02:29:28.484Z,0.00
2023-05-08T02:34:28.427Z,0.00
2023-05-08T02:39:28.408Z,0.00
2023-05-08T02:44:28.339Z,0.00
2023-05-08T02:49:28.302Z,0.00
2023-05-08T02:54:28.231Z,0.00
2023-05-08T02:59:28.175Z,0.00
2023-05-08T03:04:28.162Z,0.00
2023-05-08T03:09:28.260Z,0.00
2023-05-08T03:14:30.122Z,0.00
2023-05-08T03:19:27.998Z,0.00
2023-05-08T03:24:27.922Z,0.00
2023-05-08T03:29:28.911Z,0.00
2023-05-08T03:34:27.821Z,0.00
2023-05-08T03:39:27.725Z,0.00
2023-05-08T03:44:27.660Z,5.62
2023-05-08T03:49:27.603Z,11.25
2023-05-08T03:54:27.561Z,11.25
2023-05-08T03:59:27.670Z,22.50
2023-05-08T04:04:27.492Z,28.12
2023-05-08T04:09:28.450Z,33.75
2023-05-08T04:14:27.523Z,39.38
2023-05-08T04:19:27.362Z,50.62
2023-05-08T04:24:27.246Z,61.88
2023-05-08T04:29:28.221Z,78.75
2023-05-08T04:34:27.188Z,101.25
2023-05-08T04:39:27.151Z,129.38
2023-05-08T04:44:27.140Z,157.50
2023-05-08T04:49:27.012Z,191.25
2023-05-08T04:54:26.944Z,213.75
2023-05-08T04:59:26.914Z,208.12
2023-05-08T05:04:26.848Z,230.62
2023-05-08T05:09:26.783Z,225.00
2023-05-08T05:14:26.719Z,219.38
2023-05-08T05:19:26.740Z,230.62
2023-05-08T05:24:26.871Z,241.88
2023-05-08T05:29:27.696Z,275.62
2023-05-08T05:34:26.677Z,303.75
2023-05-08T05:39:26.598Z,326.25
2023-05-08T05:44:28.458Z,360.00
2023-05-08T05:49:26.469Z,382.50
2023-05-08T05:54:26.387Z,461.25
2023-05-08T05:59:26.375Z,517.50
2023-05-08T06:04:27.285Z,545.62
2023-05-08T06:09:26.172Z,556.88
2023-05-08T06:14:26.081Z,562.50
2023-05-08T06:19:26.021Z,540.00
2023-05-08T06:24:25.956Z,461.25
2023-05-08T06:29:25.971Z,444.38
2023-05-08T06:34:25.923Z,506.25
2023-05-08T06:39:25.815Z,540.00
2023-05-08T06:44:25.784Z,534.38
2023-05-08T06:49:25.714Z,545.62
2023-05-08T06:54:25.680Z,568.12
2023-05-08T06:59:25.610Z,663.75
2023-05-08T07:04:25.561Z,798.75
2023-05-08T07:09:25.484Z,804.38
2023-05-08T07:14:25.419Z,720.00
2023-05-08T07:19:25.356Z,725.62
2023-05-08T07:24:25.281Z,956.25
2023-05-08T07:29:25.277Z,1254.38
2023-05-08T07:34:25.300Z,1378.12
2023-05-08T07:39:25.262Z,1558.12
2023-05-08T07:44:40.566Z,1586.25
2023-05-08T07:49:26.124Z,1423.12
2023-05-08T07:54:25.064Z,1479.38
2023-05-08T07:59:25.094Z,1563.75
2023-05-08T08:04:25.023Z,1530.00
2023-05-08T08:09:24.858Z,1563.75
2023-05-08T08:14:24.805Z,1800.00
2023-05-08T08:19:24.746Z,1828.12
2023-05-08T08:24:24.687Z,1901.25
2023-05-08T08:29:24.692Z,2345.62
2023-05-08T08:34:24.564Z,2126.25
2023-05-08T08:39:24.484Z,2576.25
2023-05-08T08:44:24.473Z,2233.12
2023-05-08T08:49:24.405Z,2818.12
2023-05-08T08:54:24.328Z,2604.38
2023-05-08T08:59:24.310Z,3003.75
2023-05-08T09:04:24.413Z,4151.25
2023-05-08T09:09:24.173Z,2694.38
2023-05-08T09:14:24.180Z,2632.50
2023-05-08T09:19:27.091Z,2508.75
2023-05-08T09:24:24.013Z,2278.12
2023-05-08T09:29:23.994Z,1980.00
2023-05-08T09:34:23.975Z,1665.00
2023-05-08T09:39:24.004Z,1462.50
2023-05-08T09:44:23.829Z,1316.25
2023-05-08T09:49:23.851Z,1260.00
2023-05-08T09:54:23.795Z,1158.75
2023-05-08T09:59:23.698Z,990.00
2023-05-08T10:04:23.653Z,883.12
2023-05-08T10:09:23.686Z,1046.25
2023-05-08T10:14:23.625Z,1321.88
2023-05-08T10:19:23.525Z,1248.75
2023-05-08T10:24:23.411Z,1186.88
2023-05-08T10:29:23.349Z,1215.00
2023-05-08T10:34:23.283Z,1445.62
2023-05-08T10:39:23.238Z,1968.75
2023-05-08T10:44:23.210Z,1985.62
2023-05-08T10:49:23.135Z,1946.25
2023-05-08T10:54:23.115Z,1895.62
2023-05-08T10:59:23.042Z,1895.62
2023-05-08T11:04:23.114Z,1940.62
2023-05-08T11:09:22.952Z,1996.88
2023-05-08T11:14:23.955Z,1996.88
2023-05-08T11:19:22.954Z,1968.75
2023-05-08T11:24:22.865Z,2092.50
2023-05-08T11:29:22.814Z,2013.75
2023-05-08T11:34:22.715Z,2047.50
2023-05-08T11:39:22.623Z,2430.00
2023-05-08T11:44:22.573Z,2761.88
2023-05-08T11:49:25.979Z,3780.00
2023-05-08T11:54:23.441Z,4263.75
2023-05-08T11:59:22.444Z,4730.62
2023-05-08T12:04:22.549Z,3015.00
2023-05-08T12:09:22.348Z,6018.75
2023-05-08T12:14:22.429Z,2356.88
2023-05-08T12:19:23.228Z,3195.00
2023-05-08T12:24:22.232Z,4640.62
2023-05-08T12:29:22.934Z,4871.25
2023-05-08T12:34:22.110Z,5754.38
2023-05-08T12:39:22.118Z,2728.12
2023-05-08T12:44:22.038Z,5236.88
2023-05-08T12:49:21.905Z,4770.00
2023-05-08T12:54:21.881Z,3200.62
2023-05-08T12:59:21.827Z,2002.50
2023-05-08T13:04:21.868Z,1788.75
2023-05-08T13:09:21.724Z,1631.25
2023-05-08T13:14:21.647Z,1479.38
2023-05-08T13:19:22.763Z,1496.25
2023-05-08T13:24:21.573Z,1614.38
2023-05-08T13:29:21.542Z,1704.38
2023-05-08T13:34:21.497Z,1957.50
2023-05-08T13:39:22.488Z,1839.38
2023-05-08T13:44:30.758Z,1833.75
2023-05-08T13:49:21.410Z,2480.62
2023-05-08T13:54:21.286Z,2300.62
2023-05-08T13:59:21.195Z,2148.75
2023-05-08T14:04:21.126Z,2615.62
2023-05-08T14:09:21.104Z,2143.12
2023-05-08T14:14:21.072Z,2131.88
2023-05-08T14:19:21.008Z,1783.12
2023-05-08T14:24:20.962Z,1710.00
2023-05-08T14:29:20.865Z,1479.38
2023-05-08T14:34:20.849Z,1428.75
2023-05-08T14:39:20.774Z,1383.75
2023-05-08T14:44:20.762Z,1305.00
2023-05-08T14:49:32.835Z,1321.88
2023-05-08T14:54:21.762Z,1299.38
2023-05-08T14:59:20.566Z,1316.25
2023-05-08T15:04:20.744Z,1276.88
2023-05-08T15:09:20.508Z,1209.38
2023-05-08T15:14:20.549Z,1108.12
2023-05-08T15:19:20.454Z,1001.25
2023-05-08T15:24:20.303Z,1001.25
2023-05-08T15:29:20.329Z,978.75
2023-05-08T15:34:20.234Z,1068.75
2023-05-08T15:39:20.162Z,1175.62
2023-05-08T15:44:20.106Z,1192.50
2023-05-08T15:49:20.017Z,1147.50
2023-05-08T15:54:20.112Z,1198.12
2023-05-08T15:59:20.015Z,1198.12
2023-05-08T16:04:20.991Z,1136.25
2023-05-08T16:09:19.911Z,1192.50
2023-05-08T16:14:19.739Z,1102.50
2023-05-08T16:19:19.694Z,933.75
2023-05-08T16:24:19.665Z,860.62
2023-05-08T16:29:19.620Z,742.50
2023-05-08T16:34:19.574Z,765.00
2023-05-08T16:39:19.493Z,720.00
2023-05-08T16:44:19.461Z,652.50
2023-05-08T16:49:19.500Z,568.12
2023-05-08T16:54:19.332Z,500.62
2023-05-08T16:59:19.317Z,444.38
2023-05-08T17:04:19.277Z,365.62
2023-05-08T17:09:19.223Z,309.38
2023-05-08T17:14:19.145Z,286.88
2023-05-08T17:19:19.065Z,270.00
2023-05-08T17:24:19.032Z,298.12
2023-05-08T17:29:18.999Z,275.62
2023-05-08T17:34:19.003Z,270.00
2023-05-08T17:39:18.845Z,258.75
2023-05-08T17:44:18.848Z,230.62
2023-05-08T17:49:19.534Z,191.25
2023-05-08T17:54:18.700Z,174.38
2023-05-08T17:59:18.683Z,146.25
2023-05-08T18:04:18.580Z,151.88
2023-05-08T18:09:18.556Z,157.50
2023-05-08T18:14:18.512Z,140.62
2023-05-08T18:19:18.437Z,112.50
2023-05-08T18:24:18.395Z,106.88
2023-05-08T18:29:18.321Z,95.62
2023-05-08T18:34:18.269Z,78.75
2023-05-08T18:39:18.258Z,61.88
2023-05-08T18:44:18.135Z,45.00
2023-05-08T18:49:18.089Z,33.75
2023-05-08T18:54:18.043Z,28.12
2023-05-08T18:59:18.003Z,16.88
2023-05-08T19:04:17.948Z,11.25
2023-05-08T19:09:17.910Z,5.62
2023-05-08T19:14:17.856Z,5.62
2023-05-08T19:19:17.781Z,0.00
2023-05-08T19:24:17.761Z,0.00
2023-05-08T19:29:17.679Z,0.00
2023-05-08T19:34:17.650Z,0.00
2023-05-08T19:39:17.536Z,0.00
2023-05-08T19:44:17.519Z,0.00
2023-05-08T19:49:17.475Z,0.00
2023-05-08T19:54:17.456Z,0.00
2023-05-08T19:59:17.339Z,0.00
2023-05-08T20:04:17.290Z,0.00
2023-05-08T20:09:17.250Z,0.00
2023-05-08T20:14:17.203Z,0.00
2023-05-08T20:19:17.128Z,0.00
2023-05-08T20:24:17.261Z,0.00
2023-05-08T20:29:16.977Z,0.00
2023-05-08T20:34:16.982Z,0.00
2023-05-08T20:39:16.908Z,0.00
2023-05-08T20:44:16.997Z,0.00
2023-05-08T20:49:16.808Z,0.00
2023-05-08T20:54:16.853Z,0.00
2023-05-08T20:59:26.618Z,0.00
2023-05-08T21:04:16.790Z,0.00
2023-05-08T21:09:16.562Z,0.00
2023-05-08T21:14:16.561Z,0.00
2023-05-08T21:19:16.416Z,0.00
2023-05-08T21:24:16.439Z,0.00
2023-05-08T21:29:16.342Z,0.00
2023-05-08T21:34:16.396Z,0.00
2023-05-08T21:39:16.240Z,0.00
2023-05-08T21:44:18.282Z,0.00
2023-05-08T21:49:16.214Z,0.00
2023-05-08T21:54:16.145Z,0.00
2023-05-08T21:59:16.049Z,0.00
2023-05-08T22:04:15.957Z,0.00
2023-05-08T22:09:15.880Z,0.00
2023-05-08T22:14:15.878Z,0.00
2023-05-08T22:19:15.804Z,0.00
2023-05-08T22:24:15.732Z,0.00
2023-05-08T22:29:15.707Z,0.00
2023-05-08T22:34:16.768Z,0.00
2023-05-08T22:39:15.583Z,0.00
2023-05-08T22:44:15.555Z,0.00
2023-05-08T22:49:15.547Z,0.00
2023-05-08T22:54:15.481Z,0.00
2023-05-08T22:59:15.404Z,0.00
2023-05-08T23:04:15.327Z,0.00
2023-05-08T23:09:15.288Z,0.00
2023-05-08T23:14:15.236Z,0.00
2023-05-08T23:19:15.179Z,0.00
2023-05-08T23:24:15.169Z,0.00
2023-05-08T23:29:15.117Z,0.00
2023-05-08T23:34:14.973Z,0.00
2023-05-08T23:39:14.957Z,0.00
2023-05-08T23:44:14.959Z,0.00
2023-05-08T23:49:14.834Z,0.00
2023-05-08T23:54:14.869Z,0.00
2023-05-08T23:59:14.734Z,0.00
